createdAt,value
2018-07-07T00:00:39.343Z,14.60
2018-07-07T00:05:36.206Z,14.60
2018-07-07T00:08:04.775Z,14.60
2018-07-07T00:10:33.344Z,14.60
2018-07-07T00:13:01.908Z,14.60
2018-07-07T00:15:30.430Z,14.70
2018-07-07T00:17:58.955Z,14.70
2018-07-07T00:20:27.476Z,14.70
2018-07-07T00:22:55.962Z,14.90
2018-07-07T00:25:24.475Z,14.90
2018-07-07T00:27:53.136Z,15.00
2018-07-07T00:30:21.634Z,15.10
2018-07-07T00:32:50.209Z,15.20
2018-07-07T00:35:18.766Z,15.20
2018-07-07T00:37:47.303Z,15.20
2018-07-07T00:40:15.861Z,15.20
2018-07-07T00:42:44.453Z,15.30
2018-07-07T00:45:13.005Z,15.30
2018-07-07T00:47:41.577Z,15.30
2018-07-07T00:50:10.109Z,15.30
2018-07-07T00:52:38.637Z,15.30
2018-07-07T00:55:07.229Z,15.30
2018-07-07T00:57:35.801Z,15.20
2018-07-07T01:00:04.403Z,15.10
2018-07-07T01:02:32.936Z,15.00
2018-07-07T01:05:01.493Z,14.90
2018-07-07T01:07:30.048Z,14.90
2018-07-07T01:09:58.628Z,14.80
2018-07-07T01:12:27.199Z,14.80
2018-07-07T01:14:55.722Z,14.80
2018-07-07T01:17:24.277Z,14.70
2018-07-07T01:19:52.857Z,14.60
2018-07-07T01:22:21.398Z,14.60
2018-07-07T01:24:49.918Z,14.50
2018-07-07T01:27:18.476Z,14.40
2018-07-07T01:29:47.070Z,14.40
2018-07-07T01:32:15.620Z,14.30
2018-07-07T01:34:44.169Z,14.30
2018-07-07T01:37:12.671Z,14.30
2018-07-07T01:39:41.185Z,14.20
2018-07-07T01:42:09.673Z,14.20
2018-07-07T01:44:38.207Z,14.10
2018-07-07T01:47:06.724Z,14.10
2018-07-07T01:49:35.226Z,14.10
2018-07-07T01:52:03.844Z,14.10
2018-07-07T01:54:32.365Z,14.00
2018-07-07T01:57:00.936Z,14.00
2018-07-07T01:59:29.479Z,14.00
2018-07-07T02:01:58.591Z,14.00
2018-07-07T02:04:27.175Z,13.90
2018-07-07T02:06:55.679Z,13.90
2018-07-07T02:09:24.184Z,13.90
2018-07-07T02:11:52.778Z,14.00
2018-07-07T02:14:21.278Z,14.00
2018-07-07T02:16:49.771Z,14.00
2018-07-07T02:19:18.339Z,14.00
2018-07-07T02:21:46.831Z,14.10
2018-07-07T02:24:15.430Z,14.10
2018-07-07T02:26:43.995Z,14.20
2018-07-07T02:29:12.507Z,14.20
2018-07-07T02:31:41.058Z,14.20
2018-07-07T02:34:09.617Z,14.10
2018-07-07T02:36:38.135Z,14.10
2018-07-07T02:39:06.733Z,14.10
2018-07-07T02:41:35.555Z,14.10
2018-07-07T02:44:04.154Z,14.20
2018-07-07T02:46:32.726Z,14.20
2018-07-07T02:49:01.278Z,14.30
2018-07-07T02:51:29.863Z,14.30
2018-07-07T02:53:58.457Z,14.40
2018-07-07T02:56:27.292Z,14.40
2018-07-07T02:58:55.817Z,14.40
2018-07-07T03:01:24.644Z,14.40
2018-07-07T03:03:53.130Z,14.30
2018-07-07T03:06:21.682Z,14.30
2018-07-07T03:08:50.253Z,14.20
2018-07-07T03:11:18.881Z,14.20
2018-07-07T03:13:47.496Z,14.20
2018-07-07T03:16:16.173Z,14.10
2018-07-07T03:18:44.719Z,14.10
2018-07-07T03:21:13.292Z,14.10
2018-07-07T03:23:41.832Z,14.10
2018-07-07T03:26:10.371Z,14.10
2018-07-07T03:28:39.016Z,14.00
2018-07-07T03:31:07.546Z,14.00
2018-07-07T03:33:36.055Z,14.00
2018-07-07T03:36:04.652Z,14.00
2018-07-07T03:38:33.177Z,14.00
2018-07-07T03:41:01.749Z,14.00
2018-07-07T03:43:30.261Z,14.00
2018-07-07T03:45:58.852Z,14.00
2018-07-07T03:48:27.384Z,14.00
2018-07-07T03:53:24.348Z,14.00
2018-07-07T03:55:52.962Z,14.00
2018-07-07T03:58:21.556Z,14.00
2018-07-07T04:00:50.144Z,14.10
2018-07-07T04:03:22.966Z,14.10
2018-07-07T04:05:51.567Z,14.10
2018-07-07T04:08:20.109Z,14.10
2018-07-07T04:10:48.650Z,14.10
2018-07-07T04:13:18.754Z,14.00
2018-07-07T04:15:47.259Z,14.10
2018-07-07T04:18:20.013Z,14.00
2018-07-07T04:20:48.620Z,14.10
2018-07-07T04:23:17.172Z,14.20
2018-07-07T04:25:45.757Z,14.20
2018-07-07T04:28:14.318Z,14.30
2018-07-07T04:30:42.933Z,14.40
2018-07-07T04:33:11.416Z,14.50
2018-07-07T04:35:40.071Z,14.50
2018-07-07T04:38:08.600Z,14.50
2018-07-07T04:40:37.253Z,14.60
2018-07-07T04:43:05.834Z,14.60
2018-07-07T04:45:34.423Z,14.70
2018-07-07T04:48:02.978Z,14.80
2018-07-07T04:50:31.524Z,14.80
2018-07-07T04:53:00.054Z,14.90
2018-07-07T04:55:28.604Z,15.00
2018-07-07T04:57:57.200Z,15.00
2018-07-07T05:00:25.805Z,15.10
2018-07-07T05:02:54.411Z,15.10
2018-07-07T05:05:22.927Z,15.20
2018-07-07T05:07:51.478Z,15.30
2018-07-07T05:10:20.072Z,15.50
2018-07-07T05:12:48.579Z,15.50
2018-07-07T05:15:17.111Z,15.60
2018-07-07T05:17:45.629Z,15.70
2018-07-07T05:20:14.230Z,15.80
2018-07-07T05:22:42.792Z,15.80
2018-07-07T05:25:11.338Z,15.90
2018-07-07T05:27:39.908Z,15.90
2018-07-07T05:30:08.564Z,15.90
2018-07-07T05:32:37.221Z,16.00
2018-07-07T05:35:05.897Z,16.00
2018-07-07T05:37:34.404Z,16.00
2018-07-07T05:40:03.078Z,16.10
2018-07-07T05:42:31.612Z,16.20
2018-07-07T05:45:00.170Z,16.20
2018-07-07T05:47:28.748Z,16.30
2018-07-07T05:49:57.311Z,16.40
2018-07-07T05:52:25.817Z,16.50
2018-07-07T05:54:54.324Z,16.60
2018-07-07T05:57:22.934Z,16.70
2018-07-07T05:59:51.446Z,16.70
2018-07-07T06:02:19.958Z,16.80
2018-07-07T06:04:48.596Z,16.90
2018-07-07T06:07:17.117Z,17.00
2018-07-07T06:09:45.636Z,17.00
2018-07-07T06:12:15.406Z,17.10
2018-07-07T06:14:43.976Z,17.20
2018-07-07T06:17:12.827Z,17.20
2018-07-07T06:19:41.450Z,17.30
2018-07-07T06:22:09.970Z,17.20
2018-07-07T06:24:38.938Z,17.20
2018-07-07T06:27:08.772Z,17.20
2018-07-07T06:29:37.366Z,17.20
2018-07-07T06:32:07.070Z,17.30
2018-07-07T06:34:35.665Z,17.30
2018-07-07T06:37:04.251Z,17.40
2018-07-07T06:39:32.806Z,17.40
2018-07-07T06:42:02.558Z,17.40
2018-07-07T06:44:31.351Z,17.40
2018-07-07T06:46:59.914Z,17.40
2018-07-07T06:49:28.648Z,17.50
2018-07-07T06:51:57.293Z,17.60
2018-07-07T06:54:25.856Z,17.60
2018-07-07T06:56:54.439Z,17.70
2018-07-07T06:59:22.987Z,17.80
2018-07-07T07:01:51.517Z,17.80
2018-07-07T07:04:20.069Z,17.80
2018-07-07T07:06:48.705Z,17.80
2018-07-07T07:09:17.245Z,17.90
2018-07-07T07:11:45.798Z,17.90
2018-07-07T07:14:14.396Z,18.00
2018-07-07T07:16:42.883Z,18.10
2018-07-07T07:19:12.239Z,18.10
2018-07-07T07:21:41.076Z,18.20
2018-07-07T07:24:09.598Z,18.30
2018-07-07T07:26:38.183Z,18.30
2018-07-07T07:29:06.738Z,18.40
2018-07-07T07:31:35.319Z,18.50
2018-07-07T07:34:03.883Z,18.50
2018-07-07T07:36:40.349Z,18.60
2018-07-07T07:39:08.954Z,18.70
2018-07-07T07:41:37.697Z,18.70
2018-07-07T07:44:06.279Z,18.70
2018-07-07T07:46:34.880Z,18.80
2018-07-07T07:49:03.472Z,18.80
2018-07-07T07:51:31.959Z,18.90
2018-07-07T07:54:00.503Z,18.90
2018-07-07T07:56:29.320Z,18.90
2018-07-07T07:58:58.864Z,18.90
2018-07-07T08:01:27.596Z,19.00
2018-07-07T08:03:57.013Z,19.00
2018-07-07T08:06:25.619Z,19.10
2018-07-07T08:08:54.177Z,19.30
2018-07-07T08:11:22.823Z,19.50
2018-07-07T08:13:51.603Z,19.80
2018-07-07T08:16:20.196Z,19.90
2018-07-07T08:18:49.610Z,20.00
2018-07-07T08:21:18.699Z,20.20
2018-07-07T08:23:47.962Z,20.20
2018-07-07T08:26:17.600Z,20.20
2018-07-07T08:28:47.389Z,20.30
2018-07-07T08:31:16.083Z,20.30
2018-07-07T08:33:45.751Z,20.40
2018-07-07T08:36:14.397Z,20.40
2018-07-07T08:41:15.747Z,20.20
2018-07-07T08:43:45.318Z,19.90
2018-07-07T08:46:15.231Z,19.80
2018-07-07T08:48:44.656Z,19.60
2018-07-07T08:51:14.376Z,19.60
2018-07-07T08:53:44.481Z,19.60
2018-07-07T08:56:14.388Z,19.60
2018-07-07T08:58:44.278Z,19.50
2018-07-07T09:01:12.913Z,19.50
2018-07-07T09:03:43.000Z,19.40
2018-07-07T09:06:12.691Z,19.50
2018-07-07T09:08:41.308Z,19.80
2018-07-07T09:11:11.248Z,20.00
2018-07-07T09:13:42.243Z,20.30
2018-07-07T09:16:10.827Z,20.60
2018-07-07T09:18:41.376Z,20.90
2018-07-07T09:21:10.482Z,20.90
2018-07-07T09:23:40.145Z,20.80
2018-07-07T09:26:09.879Z,20.80
2018-07-07T09:28:38.447Z,20.90
2018-07-07T09:31:09.285Z,21.00
2018-07-07T09:33:37.872Z,21.30
2018-07-07T09:36:06.588Z,21.30
2018-07-07T09:38:36.313Z,21.20
2018-07-07T09:41:05.087Z,21.20
2018-07-07T09:43:33.664Z,21.20
2018-07-07T09:46:04.031Z,21.20
2018-07-07T09:48:35.104Z,21.40
2018-07-07T09:51:03.718Z,21.70
2018-07-07T09:53:32.285Z,21.90
2018-07-07T09:56:00.828Z,22.00
2018-07-07T09:58:29.427Z,22.10
2018-07-07T10:00:57.995Z,22.20
2018-07-07T10:03:26.526Z,22.40
2018-07-07T10:05:55.059Z,22.70
2018-07-07T10:08:23.630Z,22.70
2018-07-07T10:10:52.203Z,22.50
2018-07-07T10:13:20.780Z,22.30
2018-07-07T10:15:49.480Z,22.10
2018-07-07T10:18:18.015Z,22.00
2018-07-07T10:20:46.623Z,22.20
2018-07-07T10:23:15.203Z,22.30
2018-07-07T10:25:44.038Z,22.30
2018-07-07T10:28:12.714Z,22.60
2018-07-07T10:30:41.293Z,22.90
2018-07-07T10:33:09.881Z,23.20
2018-07-07T10:35:38.387Z,23.30
2018-07-07T10:38:07.027Z,23.50
2018-07-07T10:40:35.506Z,23.50
2018-07-07T10:43:04.098Z,23.60
2018-07-07T10:45:32.705Z,23.70
2018-07-07T10:48:01.257Z,23.70
2018-07-07T10:50:29.837Z,23.60
2018-07-07T10:52:58.394Z,23.50
2018-07-07T10:55:26.948Z,23.40
2018-07-07T10:57:56.195Z,23.40
2018-07-07T11:00:24.831Z,23.50
2018-07-07T11:02:53.403Z,23.40
2018-07-07T11:05:22.453Z,23.30
2018-07-07T11:07:51.024Z,23.30
2018-07-07T11:10:19.553Z,23.60
2018-07-07T11:12:48.130Z,23.80
2018-07-07T11:15:23.130Z,23.80
2018-07-07T11:17:51.675Z,24.00
2018-07-07T11:20:20.363Z,24.00
2018-07-07T11:22:48.935Z,24.00
2018-07-07T11:25:18.126Z,23.80
2018-07-07T11:27:46.736Z,23.60
2018-07-07T11:30:16.673Z,23.60
2018-07-07T11:32:45.353Z,23.60
2018-07-07T11:35:13.955Z,23.60
2018-07-07T11:37:42.538Z,23.80
2018-07-07T11:40:11.282Z,23.90
2018-07-07T11:42:39.908Z,24.10
2018-07-07T11:45:08.497Z,24.20
2018-07-07T11:47:37.138Z,23.90
2018-07-07T11:50:05.998Z,24.00
2018-07-07T11:52:34.517Z,24.30
2018-07-07T11:55:03.089Z,24.30
2018-07-07T11:57:31.661Z,24.20
2018-07-07T12:00:00.233Z,24.10
2018-07-07T12:02:28.849Z,24.00
2018-07-07T12:04:59.823Z,24.00
2018-07-07T12:07:28.361Z,24.00
2018-07-07T12:09:56.902Z,24.00
2018-07-07T12:12:25.533Z,24.10
2018-07-07T12:14:54.081Z,23.80
2018-07-07T12:17:22.650Z,23.30
2018-07-07T12:19:51.244Z,23.10
2018-07-07T12:22:19.844Z,23.10
2018-07-07T12:24:48.421Z,23.30
2018-07-07T12:27:17.004Z,23.40
2018-07-07T12:29:45.594Z,23.50
2018-07-07T12:32:14.443Z,23.40
2018-07-07T12:34:43.167Z,23.40
2018-07-07T12:37:11.775Z,23.50
2018-07-07T12:39:40.445Z,23.60
2018-07-07T12:42:09.093Z,23.80
2018-07-07T12:44:37.672Z,24.00
2018-07-07T12:47:06.273Z,24.20
2018-07-07T12:49:34.853Z,24.40
2018-07-07T12:52:03.447Z,24.60
2018-07-07T12:54:32.039Z,24.80
2018-07-07T12:57:00.568Z,24.90
2018-07-07T12:59:29.104Z,25.10
2018-07-07T13:01:57.665Z,25.10
2018-07-07T13:04:26.191Z,24.90
2018-07-07T13:06:54.816Z,24.90
2018-07-07T13:09:23.313Z,25.00
2018-07-07T13:11:51.829Z,25.10
2018-07-07T13:14:20.450Z,25.20
2018-07-07T13:16:48.946Z,25.40
2018-07-07T13:19:17.841Z,25.40
2018-07-07T13:21:46.390Z,25.40
2018-07-07T13:24:14.990Z,25.30
2018-07-07T13:26:43.618Z,25.20
2018-07-07T13:29:12.153Z,24.90
2018-07-07T13:31:40.688Z,24.80
2018-07-07T13:34:09.321Z,24.80
2018-07-07T13:36:37.859Z,24.90
2018-07-07T13:39:07.695Z,25.00
2018-07-07T13:41:37.640Z,25.00
2018-07-07T13:44:06.265Z,25.00
2018-07-07T13:46:35.113Z,25.00
2018-07-07T13:49:03.677Z,25.00
2018-07-07T13:51:32.248Z,25.00
2018-07-07T13:54:00.876Z,25.10
2018-07-07T13:56:29.389Z,25.30
2018-07-07T13:58:57.974Z,25.40
2018-07-07T14:01:26.538Z,25.50
2018-07-07T14:03:55.096Z,25.50
2018-07-07T14:06:23.651Z,25.50
2018-07-07T14:08:52.272Z,25.40
2018-07-07T14:11:20.855Z,25.40
2018-07-07T14:13:49.427Z,25.40
2018-07-07T14:16:17.948Z,25.30
2018-07-07T14:18:46.503Z,25.40
2018-07-07T14:21:15.091Z,25.30
2018-07-07T14:23:43.910Z,25.40
2018-07-07T14:26:12.443Z,25.40
2018-07-07T14:28:40.977Z,25.50
2018-07-07T14:31:09.593Z,25.40
2018-07-07T14:33:38.182Z,25.50
2018-07-07T14:36:06.799Z,25.50
2018-07-07T14:38:36.515Z,25.50
2018-07-07T14:41:12.552Z,25.40
2018-07-07T14:43:47.368Z,25.30
2018-07-07T14:46:15.924Z,25.30
2018-07-07T14:48:44.439Z,25.30
2018-07-07T14:51:13.055Z,25.40
2018-07-07T14:53:41.591Z,25.40
2018-07-07T14:56:10.245Z,25.30
2018-07-07T14:58:38.807Z,25.20
2018-07-07T15:01:07.512Z,25.20
2018-07-07T15:03:36.141Z,25.20
2018-07-07T15:06:04.719Z,25.20
2018-07-07T15:11:01.545Z,24.90
2018-07-07T15:13:30.172Z,24.70
2018-07-07T15:15:58.668Z,24.70
2018-07-07T15:18:27.214Z,24.70
2018-07-07T15:20:55.805Z,24.70
2018-07-07T15:25:52.779Z,24.80
2018-07-07T15:28:21.328Z,24.80
2018-07-07T15:30:49.935Z,24.70
2018-07-07T15:35:48.145Z,24.60
2018-07-07T15:38:16.738Z,24.70
2018-07-07T15:40:45.365Z,24.70
2018-07-07T15:43:13.923Z,24.60
2018-07-07T15:45:42.494Z,24.60
2018-07-07T15:48:11.059Z,24.70
2018-07-07T15:50:39.637Z,24.70
2018-07-07T15:53:08.241Z,24.70
2018-07-07T15:55:36.954Z,24.70
2018-07-07T15:58:05.571Z,24.80
2018-07-07T16:00:34.199Z,24.80
2018-07-07T16:03:02.771Z,24.70
2018-07-07T16:05:31.484Z,24.80
2018-07-07T16:08:00.066Z,24.90
2018-07-07T16:10:28.772Z,24.90
2018-07-07T16:12:57.294Z,24.70
2018-07-07T16:15:25.837Z,24.70
2018-07-07T16:17:57.263Z,24.60
2018-07-07T16:20:25.942Z,24.70
2018-07-07T16:22:54.468Z,24.60
2018-07-07T16:25:22.992Z,24.50
2018-07-07T16:27:51.500Z,24.30
2018-07-07T16:30:20.079Z,24.20
2018-07-07T16:32:48.636Z,24.20
2018-07-07T16:35:17.218Z,24.20
2018-07-07T16:37:45.772Z,24.30
2018-07-07T16:40:14.307Z,24.20
2018-07-07T16:42:42.976Z,24.10
2018-07-07T16:45:11.697Z,24.00
2018-07-07T16:47:41.719Z,23.90
2018-07-07T16:50:10.405Z,23.90
2018-07-07T16:52:39.043Z,23.80
2018-07-07T16:55:07.692Z,23.60
2018-07-07T16:57:36.792Z,23.60
2018-07-07T17:00:05.429Z,23.60
2018-07-07T17:02:34.102Z,23.80
2018-07-07T17:05:02.703Z,23.70
2018-07-07T17:07:31.268Z,23.70
2018-07-07T17:09:59.918Z,23.60
2018-07-07T17:12:28.496Z,23.60
2018-07-07T17:14:57.124Z,23.60
2018-07-07T17:17:25.756Z,23.50
2018-07-07T17:19:54.434Z,23.50
2018-07-07T17:22:23.001Z,23.50
2018-07-07T17:24:51.618Z,23.40
2018-07-07T17:27:20.249Z,23.40
2018-07-07T17:29:48.869Z,23.30
2018-07-07T17:32:17.509Z,23.30
2018-07-07T17:34:46.177Z,23.20
2018-07-07T17:37:14.910Z,23.10
2018-07-07T17:39:43.990Z,22.90
2018-07-07T17:42:12.667Z,22.90
2018-07-07T17:44:41.272Z,22.90
2018-07-07T17:47:09.925Z,22.90
2018-07-07T17:49:38.546Z,22.90
2018-07-07T17:52:07.232Z,22.80
2018-07-07T17:54:35.838Z,22.80
2018-07-07T17:57:04.454Z,22.70
2018-07-07T17:59:33.005Z,22.70
2018-07-07T18:02:01.545Z,22.60
2018-07-07T18:04:30.206Z,22.60
2018-07-07T18:06:58.778Z,22.40
2018-07-07T18:09:27.360Z,22.30
2018-07-07T18:11:55.954Z,22.10
2018-07-07T18:14:24.544Z,22.00
2018-07-07T18:16:53.106Z,21.90
2018-07-07T18:19:21.663Z,21.80
2018-07-07T18:21:50.276Z,21.80
2018-07-07T18:24:18.848Z,21.70
2018-07-07T18:26:48.119Z,21.60
2018-07-07T18:29:16.672Z,21.60
2018-07-07T18:31:45.224Z,21.40
2018-07-07T18:34:13.773Z,21.30
2018-07-07T18:36:42.641Z,21.20
2018-07-07T18:39:11.188Z,21.10
2018-07-07T18:41:39.789Z,21.00
2018-07-07T18:44:08.426Z,20.90
2018-07-07T18:46:36.979Z,20.90
2018-07-07T18:49:05.629Z,20.70
2018-07-07T18:51:34.145Z,20.60
2018-07-07T18:54:02.760Z,20.60
2018-07-07T18:56:31.444Z,20.60
2018-07-07T18:59:00.001Z,20.50
2018-07-07T19:01:28.564Z,20.40
2018-07-07T19:03:57.106Z,20.30
2018-07-07T19:06:25.625Z,20.20
2018-07-07T19:08:54.218Z,20.20
2018-07-07T19:11:22.794Z,20.20
2018-07-07T19:13:51.411Z,20.20
2018-07-07T19:16:19.977Z,20.20
2018-07-07T19:18:48.547Z,20.10
2018-07-07T19:21:22.450Z,20.10
2018-07-07T19:23:56.363Z,20.10
2018-07-07T19:26:30.437Z,20.00
2018-07-07T19:28:59.009Z,20.00
2018-07-07T19:31:27.601Z,19.90
2018-07-07T19:34:02.245Z,19.90
2018-07-07T19:36:35.972Z,19.90
2018-07-07T19:39:05.157Z,19.80
2018-07-07T19:41:33.723Z,19.70
2018-07-07T19:44:02.257Z,19.60
2018-07-07T19:46:30.784Z,19.50
2018-07-07T19:48:59.346Z,19.40
2018-07-07T19:51:27.894Z,19.40
2018-07-07T19:53:56.513Z,19.40
2018-07-07T19:56:25.007Z,19.30
2018-07-07T19:58:53.514Z,19.20
2018-07-07T20:01:22.014Z,19.00
2018-07-07T20:03:50.537Z,18.90
2018-07-07T20:06:19.119Z,18.90
2018-07-07T20:08:47.633Z,18.80
2018-07-07T20:13:44.409Z,18.70
2018-07-07T20:16:18.680Z,18.70
2018-07-07T20:19:26.922Z,18.60
2018-07-07T20:22:00.579Z,18.70
2018-07-07T20:24:35.840Z,18.80
2018-07-07T20:27:09.867Z,18.80
2018-07-07T20:29:38.444Z,18.80
2018-07-07T20:32:12.580Z,18.80
2018-07-07T20:34:41.158Z,18.80
2018-07-07T20:37:09.688Z,18.80
2018-07-07T20:39:38.223Z,18.70
2018-07-07T20:42:06.816Z,18.70
2018-07-07T20:44:35.322Z,18.60
2018-07-07T20:47:03.956Z,18.60
2018-07-07T20:49:32.501Z,18.60
2018-07-07T20:52:01.058Z,18.60
2018-07-07T20:54:29.572Z,18.60
2018-07-07T20:56:58.139Z,18.60
2018-07-07T20:59:26.662Z,18.50
2018-07-07T21:01:55.187Z,18.40
2018-07-07T21:04:23.787Z,18.40
2018-07-07T21:06:52.331Z,18.30
2018-07-07T21:09:20.876Z,18.20
2018-07-07T21:11:49.412Z,18.30
2018-07-07T21:14:17.963Z,18.30
2018-07-07T21:16:46.531Z,18.40
2018-07-07T21:19:15.063Z,18.40
2018-07-07T21:21:43.616Z,18.50
2018-07-07T21:24:12.185Z,18.60
2018-07-07T21:26:40.723Z,18.50
2018-07-07T21:29:09.295Z,18.60
2018-07-07T21:31:37.811Z,18.40
2018-07-07T21:34:06.408Z,18.20
2018-07-07T21:36:34.920Z,18.00
2018-07-07T21:39:03.524Z,17.90
2018-07-07T21:41:32.047Z,17.70
2018-07-07T21:44:00.543Z,17.60
2018-07-07T21:46:29.136Z,17.50
2018-07-07T21:48:57.698Z,17.40
2018-07-07T21:51:26.252Z,17.40
2018-07-07T21:53:54.820Z,17.30
2018-07-07T21:56:23.349Z,17.30
2018-07-07T21:58:56.100Z,17.10
2018-07-07T22:01:46.806Z,17.10
2018-07-07T22:04:20.687Z,17.00
2018-07-07T22:09:23.003Z,16.70
2018-07-07T22:11:51.539Z,16.70
2018-07-07T22:14:20.144Z,16.60
2018-07-07T22:16:48.700Z,16.50
2018-07-07T22:19:17.259Z,16.40
2018-07-07T22:22:05.966Z,16.40
2018-07-07T22:24:34.779Z,16.30
2018-07-07T22:27:04.688Z,16.20
2018-07-07T22:29:33.259Z,16.10
2018-07-07T22:32:03.182Z,16.00
2018-07-07T22:34:36.232Z,16.00
2018-07-07T22:37:04.810Z,15.90
2018-07-07T22:39:35.609Z,16.00
2018-07-07T22:42:05.284Z,16.00
2018-07-07T22:44:34.615Z,15.90
2018-07-07T22:47:03.174Z,15.90
2018-07-07T22:49:32.059Z,15.80
2018-07-07T22:52:00.660Z,15.70
2018-07-07T22:54:29.187Z,15.70
2018-07-07T22:56:57.788Z,15.60
2018-07-07T22:59:26.323Z,15.60
2018-07-07T23:01:54.917Z,15.50
2018-07-07T23:04:23.436Z,15.50
2018-07-07T23:06:51.992Z,15.50
2018-07-07T23:09:20.632Z,15.40
2018-07-07T23:11:49.182Z,15.40
2018-07-07T23:16:45.962Z,15.30
2018-07-07T23:19:14.492Z,15.20
2018-07-07T23:21:43.065Z,15.20
2018-07-07T23:24:11.611Z,15.20
2018-07-07T23:26:40.139Z,15.20
2018-07-07T23:29:08.685Z,15.10
2018-07-07T23:31:37.206Z,15.10
2018-07-07T23:34:05.815Z,15.10
2018-07-07T23:36:34.364Z,15.00
2018-07-07T23:39:03.013Z,15.00
2018-07-07T23:41:31.558Z,15.00
2018-07-07T23:44:00.112Z,14.90
2018-07-07T23:46:28.745Z,14.90
2018-07-07T23:48:57.283Z,14.90
2018-07-07T23:51:25.862Z,14.90
2018-07-07T23:53:54.448Z,14.90
2018-07-07T23:56:23.064Z,14.90
2018-07-07T23:58:52.284Z,14.80
